createdAt,value
2017-11-29T00:01:02.542Z,4.63
2017-11-29T00:02:12.526Z,4.61
2017-11-29T00:03:22.504Z,4.64
2017-11-29T00:04:32.481Z,4.6
2017-11-29T00:05:42.450Z,4.57
2017-11-29T00:06:51.910Z,4.58
2017-11-29T00:08:01.894Z,4.53
2017-11-29T00:09:11.597Z,4.56
2017-11-29T00:10:21.047Z,4.5
2017-11-29T00:11:30.780Z,4.49
2017-11-29T00:12:40.491Z,4.52
2017-11-29T00:13:50.187Z,4.56
2017-11-29T00:14:59.890Z,4.57
2017-11-29T00:16:09.326Z,4.42
2017-11-29T00:17:19.289Z,4.45
2017-11-29T00:18:28.996Z,4.42
2017-11-29T00:19:38.963Z,4.5
2017-11-29T00:20:48.932Z,4.46
2017-11-29T00:21:58.944Z,4.39
2017-11-29T00:23:08.925Z,4.43
2017-11-29T00:24:18.631Z,4.39
2017-11-29T00:25:28.610Z,4.4
2017-11-29T00:26:38.575Z,4.46
2017-11-29T00:27:48.525Z,4.46
2017-11-29T00:28:58.004Z,4.36
2017-11-29T00:30:07.704Z,4.43
2017-11-29T00:31:17.419Z,4.45
2017-11-29T00:32:27.376Z,4.38
2017-11-29T00:33:37.341Z,4.4
2017-11-29T00:34:46.799Z,4.39
2017-11-29T00:35:56.785Z,4.36
2017-11-29T00:37:06.747Z,4.31
2017-11-29T00:38:16.461Z,4.4
2017-11-29T00:39:26.427Z,4.36
2017-11-29T00:40:36.401Z,4.31
2017-11-29T00:41:46.378Z,4.39
2017-11-29T00:42:56.339Z,4.27
2017-11-29T00:44:06.303Z,4.24
2017-11-29T00:45:16.006Z,4.27
2017-11-29T00:46:25.713Z,4.36
2017-11-29T00:47:35.161Z,4.36
2017-11-29T00:48:44.610Z,4.32
2017-11-29T00:49:54.328Z,4.25
2017-11-29T00:51:04.300Z,4.27
2017-11-29T00:52:14.277Z,4.27
2017-11-29T00:53:23.982Z,4.27
2017-11-29T00:54:33.680Z,4.25
2017-11-29T00:55:43.129Z,4.16
2017-11-29T00:56:53.109Z,4.24
2017-11-29T00:58:02.806Z,4.25
2017-11-29T00:59:12.789Z,4.22
2017-11-29T01:00:22.500Z,4.22
2017-11-29T01:01:32.211Z,4.24
2017-11-29T01:02:42.176Z,4.25
2017-11-29T01:03:51.892Z,4.25
2017-11-29T01:05:01.915Z,4.24
2017-11-29T01:06:11.907Z,4.13
2017-11-29T01:07:21.882Z,4.16
2017-11-29T01:08:31.061Z,4.2
2017-11-29T01:09:40.514Z,4.18
2017-11-29T01:10:50.221Z,4.2
2017-11-29T01:11:59.677Z,4.14
2017-11-29T01:13:09.416Z,4.2
2017-11-29T01:14:19.407Z,4.02
2017-11-29T01:15:29.381Z,4.04
2017-11-29T01:16:39.120Z,4.07
2017-11-29T01:17:49.121Z,3.96
2017-11-29T01:18:58.826Z,3.94
2017-11-29T01:20:08.540Z,3.94
2017-11-29T01:21:18.653Z,3.92
2017-11-29T01:22:27.858Z,3.84
2017-11-29T01:23:37.313Z,3.84
2017-11-29T01:24:47.314Z,3.88
2017-11-29T01:25:56.751Z,3.88
2017-11-29T01:27:06.445Z,3.81
2017-11-29T01:28:16.415Z,3.82
2017-11-29T01:29:26.118Z,3.85
2017-11-29T01:30:36.082Z,3.89
2017-11-29T01:31:46.049Z,3.91
2017-11-29T01:32:56.021Z,3.81
2017-11-29T01:34:06.000Z,3.82
2017-11-29T01:35:15.467Z,3.82
2017-11-29T01:36:25.448Z,3.84
2017-11-29T01:37:35.413Z,3.86
2017-11-29T01:38:45.404Z,3.85
2017-11-29T01:39:55.373Z,3.77
2017-11-29T01:41:05.096Z,3.66
2017-11-29T01:42:14.797Z,3.66
2017-11-29T01:43:24.764Z,3.66
2017-11-29T01:44:34.464Z,3.68
2017-11-29T01:45:44.172Z,3.67
2017-11-29T01:46:53.353Z,3.61
2017-11-29T01:48:03.058Z,3.66
2017-11-29T01:49:13.024Z,3.64
2017-11-29T01:50:22.463Z,3.59
2017-11-29T01:51:32.167Z,3.55
2017-11-29T01:52:41.868Z,3.64
2017-11-29T01:53:51.610Z,3.56
2017-11-29T01:55:01.330Z,3.56
2017-11-29T01:56:11.302Z,3.53
2017-11-29T01:57:21.266Z,3.5
2017-11-29T01:58:31.257Z,3.52
2017-11-29T01:59:40.697Z,3.5
2017-11-29T02:00:50.647Z,3.48
2017-11-29T02:02:00.349Z,3.46
2017-11-29T02:03:10.050Z,3.53
2017-11-29T02:04:19.755Z,3.52
2017-11-29T02:05:29.732Z,3.58
2017-11-29T02:06:39.441Z,3.48
2017-11-29T02:07:49.139Z,3.53
2017-11-29T02:08:58.851Z,3.49
2017-11-29T02:10:08.814Z,3.48
2017-11-29T02:11:18.515Z,3.5
2017-11-29T02:12:28.228Z,3.52
2017-11-29T02:13:37.942Z,3.48
2017-11-29T02:14:47.900Z,3.46
2017-11-29T02:15:57.088Z,3.5
2017-11-29T02:17:07.065Z,3.46
2017-11-29T02:18:16.233Z,3.49
2017-11-29T02:19:25.945Z,3.53
2017-11-29T02:20:35.653Z,3.49
2017-11-29T02:21:45.627Z,3.49
2017-11-29T02:22:55.066Z,3.5
2017-11-29T02:24:05.042Z,3.5
2017-11-29T02:25:15.016Z,3.48
2017-11-29T02:26:24.986Z,3.45
2017-11-29T02:27:34.948Z,3.45
2017-11-29T02:28:44.384Z,3.46
2017-11-29T02:29:54.373Z,3.37
2017-11-29T02:31:04.360Z,3.41
2017-11-29T02:32:14.334Z,3.3
2017-11-29T02:33:24.059Z,3.3
2017-11-29T02:34:33.772Z,3.37
2017-11-29T02:35:43.215Z,3.3
2017-11-29T02:36:53.185Z,3.34
2017-11-29T02:38:02.912Z,3.31
2017-11-29T02:39:12.883Z,3.4
2017-11-29T02:40:22.880Z,3.21
2017-11-29T02:41:32.059Z,3.27
2017-11-29T02:42:41.802Z,3.24
2017-11-29T02:43:51.797Z,3.16
2017-11-29T02:45:01.504Z,3.18
2017-11-29T02:46:11.483Z,3.22
2017-11-29T02:47:21.465Z,3.08
2017-11-29T02:48:31.453Z,3.09
2017-11-29T02:49:41.447Z,3.12
2017-11-29T02:50:50.887Z,3.08
2017-11-29T02:52:00.847Z,3.11
2017-11-29T02:53:10.838Z,3.11
2017-11-29T02:54:20.832Z,3.12
2017-11-29T02:55:30.811Z,3.01
2017-11-29T02:56:40.506Z,3.06
2017-11-29T02:57:50.498Z,3.01
2017-11-29T02:59:00.457Z,2.94
2017-11-29T03:00:10.451Z,2.95
2017-11-29T03:01:20.149Z,2.95
2017-11-29T03:02:29.848Z,2.95
2017-11-29T03:03:39.559Z,2.95
2017-11-29T03:04:49.015Z,2.95
2017-11-29T03:05:58.721Z,2.9
2017-11-29T03:07:08.700Z,2.94
2017-11-29T03:08:18.137Z,2.91
2017-11-29T03:09:27.855Z,2.82
2017-11-29T03:10:37.824Z,2.83
2017-11-29T03:11:47.833Z,2.88
2017-11-29T03:12:57.545Z,2.87
2017-11-29T03:14:07.533Z,2.83
2017-11-29T03:15:17.519Z,2.87
2017-11-29T03:16:26.995Z,2.87
2017-11-29T03:17:36.959Z,2.83
2017-11-29T03:18:46.688Z,2.77
2017-11-29T03:19:56.444Z,2.77
2017-11-29T03:21:06.406Z,2.73
2017-11-29T03:22:16.367Z,2.76
2017-11-29T03:23:26.350Z,2.77
2017-11-29T03:24:35.797Z,2.69
2017-11-29T03:25:45.233Z,2.68
2017-11-29T03:26:55.213Z,2.64
2017-11-29T03:28:05.181Z,2.64
2017-11-29T03:29:15.147Z,2.69
2017-11-29T03:30:24.864Z,2.59
2017-11-29T03:31:34.861Z,2.61
2017-11-29T03:32:44.571Z,2.54
2017-11-29T03:33:54.283Z,2.5
2017-11-29T03:35:04.266Z,2.52
2017-11-29T03:36:13.968Z,2.55
2017-11-29T03:37:23.678Z,2.5
2017-11-29T03:38:33.381Z,2.52
2017-11-29T03:39:43.094Z,2.51
2017-11-29T03:40:53.084Z,2.43
2017-11-29T03:42:02.781Z,2.44
2017-11-29T03:43:12.545Z,2.43
2017-11-29T03:44:22.253Z,2.4
2017-11-29T03:45:32.233Z,2.36
2017-11-29T03:46:42.207Z,2.37
2017-11-29T03:47:51.934Z,2.36
2017-11-29T03:49:01.110Z,2.32
2017-11-29T03:50:11.079Z,2.28
2017-11-29T03:51:20.523Z,2.36
2017-11-29T03:52:30.480Z,2.37
2017-11-29T03:53:39.921Z,2.22
2017-11-29T03:54:49.631Z,2.33
2017-11-29T03:55:59.074Z,2.25
2017-11-29T03:57:09.053Z,2.32
2017-11-29T03:58:18.762Z,2.33
2017-11-29T03:59:28.717Z,2.32
2017-11-29T04:00:38.418Z,2.26
2017-11-29T04:01:48.387Z,2.28
2017-11-29T04:02:58.091Z,2.14
2017-11-29T04:04:07.542Z,2.18
2017-11-29T04:05:17.259Z,2.1
2017-11-29T04:06:27.213Z,2.07
2017-11-29T04:07:36.917Z,2.01
2017-11-29T04:08:46.620Z,1.97
2017-11-29T04:09:56.587Z,2.07
2017-11-29T04:11:06.297Z,2
2017-11-29T04:12:15.997Z,2
2017-11-29T04:13:25.728Z,1.93
2017-11-29T04:14:35.699Z,1.93
2017-11-29T04:15:45.399Z,2
2017-11-29T04:16:55.376Z,1.95
2017-11-29T04:18:05.349Z,1.89
2017-11-29T04:19:15.329Z,1.97
2017-11-29T04:20:25.302Z,2
2017-11-29T04:21:35.305Z,1.97
2017-11-29T04:22:44.758Z,1.95
2017-11-29T04:23:54.224Z,1.93
2017-11-29T04:25:04.194Z,1.89
2017-11-29T04:26:13.896Z,1.88
2017-11-29T04:27:23.893Z,1.81
2017-11-29T04:28:33.624Z,1.78
2017-11-29T04:29:43.596Z,1.84
2017-11-29T04:30:53.024Z,1.81
2017-11-29T04:32:02.456Z,1.76
2017-11-29T04:33:11.902Z,1.85
2017-11-29T04:34:21.348Z,1.85
2017-11-29T04:35:31.314Z,1.84
2017-11-29T04:36:40.494Z,1.76
2017-11-29T04:37:50.467Z,1.84
2017-11-29T04:38:59.631Z,1.78
2017-11-29T04:40:09.349Z,1.79
2017-11-29T04:41:19.092Z,1.67
2017-11-29T04:42:28.534Z,1.75
2017-11-29T04:43:38.494Z,1.74
2017-11-29T04:44:48.213Z,1.7
2017-11-29T04:45:57.670Z,1.61
2017-11-29T04:47:07.113Z,1.61
2017-11-29T04:48:17.077Z,1.64
2017-11-29T04:49:26.510Z,1.57
2017-11-29T04:50:35.971Z,1.63
2017-11-29T04:51:45.680Z,1.58
2017-11-29T04:52:55.645Z,1.58
2017-11-29T04:54:05.632Z,1.52
2017-11-29T04:55:15.606Z,1.52
2017-11-29T04:56:25.568Z,1.57
2017-11-29T04:57:35.275Z,1.56
2017-11-29T04:58:45.227Z,1.52
2017-11-29T04:59:55.261Z,1.64
2017-11-29T05:01:04.950Z,1.46
2017-11-29T05:02:14.909Z,1.48
2017-11-29T05:03:24.870Z,1.48
2017-11-29T05:04:34.579Z,1.48
2017-11-29T05:05:44.548Z,1.49
2017-11-29T05:06:53.993Z,1.46
2017-11-29T05:08:03.964Z,1.5
2017-11-29T05:09:13.928Z,1.5
2017-11-29T05:10:23.910Z,1.46
2017-11-29T05:11:33.605Z,1.43
2017-11-29T05:12:43.562Z,1.45
2017-11-29T05:13:53.261Z,1.5
2017-11-29T05:15:03.225Z,1.49
2017-11-29T05:16:12.688Z,1.45
2017-11-29T05:17:22.650Z,1.42
2017-11-29T05:18:32.357Z,1.39
2017-11-29T05:19:42.086Z,1.45
2017-11-29T05:20:51.783Z,1.45
2017-11-29T05:22:01.238Z,1.36
2017-11-29T05:23:10.678Z,1.48
2017-11-29T05:24:20.676Z,1.4
2017-11-29T05:25:30.382Z,1.42
2017-11-29T05:26:39.848Z,1.36
2017-11-29T05:27:49.806Z,1.38
2017-11-29T05:28:59.764Z,1.39
2017-11-29T05:30:09.476Z,1.46
2017-11-29T05:31:19.170Z,1.4
2017-11-29T05:32:28.657Z,1.43
2017-11-29T05:33:38.387Z,1.46
2017-11-29T05:34:48.089Z,1.38
2017-11-29T05:35:58.050Z,1.34
2017-11-29T05:37:08.025Z,1.38
2017-11-29T05:38:17.469Z,1.31
2017-11-29T05:39:27.189Z,1.24
2017-11-29T05:40:36.894Z,1.3
2017-11-29T05:41:46.631Z,1.25
2017-11-29T05:42:56.606Z,1.25
2017-11-29T05:44:06.311Z,1.24
2017-11-29T05:45:15.503Z,1.21
2017-11-29T05:46:25.484Z,1.21
2017-11-29T05:47:35.451Z,1.16
2017-11-29T05:48:45.458Z,1.25
2017-11-29T05:49:55.176Z,1.28
2017-11-29T05:51:04.874Z,1.24
2017-11-29T05:52:14.852Z,1.2
2017-11-29T05:53:24.290Z,1.25
2017-11-29T05:54:34.310Z,1.24
2017-11-29T05:55:44.274Z,1.24
2017-11-29T05:56:54.252Z,1.21
2017-11-29T05:58:03.978Z,1.24
2017-11-29T05:59:13.705Z,1.3
2017-11-29T06:00:22.892Z,1.38
2017-11-29T06:01:32.614Z,1.28
2017-11-29T06:02:42.317Z,1.36
2017-11-29T06:03:52.028Z,1.38
2017-11-29T06:05:02.011Z,1.36
2017-11-29T06:06:12.086Z,1.39
2017-11-29T06:07:22.054Z,1.38
2017-11-29T06:08:32.016Z,1.36
2017-11-29T06:09:41.718Z,1.48
2017-11-29T06:10:51.170Z,1.45
2017-11-29T06:12:01.134Z,1.48
2017-11-29T06:13:10.579Z,1.49
2017-11-29T06:14:20.264Z,1.43
2017-11-29T06:15:30.240Z,1.45
2017-11-29T06:16:39.940Z,1.45
2017-11-29T06:17:49.648Z,1.42
2017-11-29T06:18:59.609Z,1.43
2017-11-29T06:20:09.601Z,1.53
2017-11-29T06:21:19.318Z,1.56
2017-11-29T06:22:28.755Z,1.53
2017-11-29T06:23:38.448Z,1.56
2017-11-29T06:24:48.175Z,1.56
2017-11-29T06:25:57.871Z,1.56
2017-11-29T06:27:07.856Z,1.61
2017-11-29T06:28:17.561Z,1.61
2017-11-29T06:29:26.994Z,1.6
2017-11-29T06:30:36.705Z,1.6
2017-11-29T06:31:46.662Z,1.6
2017-11-29T06:32:56.637Z,1.6
2017-11-29T06:34:06.103Z,1.6
2017-11-29T06:35:15.806Z,1.57
2017-11-29T06:36:25.782Z,1.6
2017-11-29T06:37:35.739Z,1.64
2017-11-29T06:38:45.726Z,1.63
2017-11-29T06:39:55.737Z,1.66
2017-11-29T06:41:05.462Z,1.64
2017-11-29T06:42:15.437Z,1.6
2017-11-29T06:43:25.414Z,1.67
2017-11-29T06:44:35.640Z,1.6
2017-11-29T06:45:45.649Z,1.61
2017-11-29T06:46:54.835Z,1.6
2017-11-29T06:48:04.546Z,1.64
2017-11-29T06:49:13.472Z,1.6
2017-11-29T06:50:22.913Z,1.63
2017-11-29T06:51:32.891Z,1.66
2017-11-29T06:52:42.896Z,1.58
2017-11-29T06:53:52.603Z,1.63
2017-11-29T06:55:02.614Z,1.64
2017-11-29T06:56:12.354Z,1.61
2017-11-29T06:57:22.091Z,1.61
2017-11-29T06:58:32.289Z,1.67
2017-11-29T06:59:42.028Z,1.71
2017-11-29T07:00:51.982Z,1.66
2017-11-29T07:02:01.420Z,1.67
2017-11-29T07:03:10.875Z,1.78
2017-11-29T07:04:20.318Z,1.76
2017-11-29T07:05:30.298Z,1.78
2017-11-29T07:06:40.022Z,1.75
2017-11-29T07:07:49.994Z,1.79
2017-11-29T07:08:59.960Z,1.79
2017-11-29T07:10:09.932Z,1.84
2017-11-29T07:11:19.137Z,1.84
2017-11-29T07:12:28.887Z,1.84
2017-11-29T07:13:38.856Z,1.86
2017-11-29T07:14:48.876Z,1.86
2017-11-29T07:15:58.601Z,1.93
2017-11-29T07:17:08.300Z,1.92
2017-11-29T07:18:18.028Z,1.93
2017-11-29T07:19:27.744Z,1.95
2017-11-29T07:20:37.470Z,1.88
2017-11-29T07:21:47.450Z,1.89
2017-11-29T07:22:57.440Z,1.93
2017-11-29T07:24:06.889Z,2.05
2017-11-29T07:25:16.871Z,2.04
2017-11-29T07:26:26.590Z,2.07
2017-11-29T07:27:36.550Z,2.05
2017-11-29T07:28:45.729Z,2
2017-11-29T07:29:55.452Z,2.04
2017-11-29T07:31:05.167Z,2.01
2017-11-29T07:32:15.146Z,2.04
2017-11-29T07:33:25.122Z,2.1
2017-11-29T07:34:34.863Z,2.19
2017-11-29T07:35:44.588Z,2.12
2017-11-29T07:36:54.299Z,2.16
2017-11-29T07:38:04.281Z,2.25
2017-11-29T07:39:13.984Z,2.26
2017-11-29T07:40:23.968Z,2.18
2017-11-29T07:41:33.673Z,2.21
2017-11-29T07:42:43.409Z,2.23
2017-11-29T07:43:53.381Z,2.22
2017-11-29T07:45:03.090Z,2.26
2017-11-29T07:46:13.055Z,2.3
2017-11-29T07:47:22.760Z,2.33
2017-11-29T07:48:32.726Z,2.32
2017-11-29T07:49:42.183Z,2.28
2017-11-29T07:50:52.151Z,2.34
2017-11-29T07:52:02.137Z,2.33
2017-11-29T07:53:11.853Z,2.33
2017-11-29T07:54:21.836Z,2.4
2017-11-29T07:55:31.274Z,2.37
2017-11-29T07:56:41.293Z,2.43
2017-11-29T07:57:51.023Z,2.37
2017-11-29T07:59:00.748Z,2.46
2017-11-29T08:00:10.735Z,2.5
2017-11-29T08:01:20.764Z,2.57
2017-11-29T08:02:30.752Z,2.82
2017-11-29T08:03:40.742Z,2.82
2017-11-29T08:04:50.718Z,2.83
2017-11-29T08:06:00.451Z,2.82
2017-11-29T08:07:09.666Z,2.82
2017-11-29T08:08:19.639Z,2.93
2017-11-29T08:09:29.639Z,2.94
2017-11-29T08:10:39.618Z,3.03
2017-11-29T08:11:49.369Z,3.12
2017-11-29T08:12:59.347Z,3.13
2017-11-29T08:14:09.051Z,3.27
2017-11-29T08:15:18.784Z,3.33
2017-11-29T08:16:28.495Z,3.41
2017-11-29T08:17:38.491Z,3.43
2017-11-29T08:18:47.942Z,3.33
2017-11-29T08:19:57.978Z,3.3
2017-11-29T08:21:07.985Z,3.3
2017-11-29T08:22:17.972Z,3.48
2017-11-29T08:23:27.699Z,3.46
2017-11-29T08:24:37.517Z,3.53
2017-11-29T08:25:47.250Z,3.5
2017-11-29T08:26:56.971Z,3.48
2017-11-29T08:28:06.442Z,3.52
2017-11-29T08:29:16.455Z,3.48
2017-11-29T08:30:26.474Z,3.45
2017-11-29T08:31:36.195Z,3.4
2017-11-29T08:32:45.918Z,3.34
2017-11-29T08:33:55.453Z,3.3
2017-11-29T08:35:05.171Z,3.24
2017-11-29T08:36:15.166Z,3.24
2017-11-29T08:37:24.624Z,3.26
2017-11-29T08:38:34.632Z,3.03
2017-11-29T08:39:44.632Z,3.05
2017-11-29T08:40:54.621Z,3.03
2017-11-29T08:42:04.367Z,3.03
2017-11-29T08:43:14.348Z,3.01
2017-11-29T08:44:24.348Z,2.93
2017-11-29T08:45:34.070Z,2.91
2017-11-29T08:46:43.553Z,3.01
2017-11-29T08:47:53.545Z,3.15
2017-11-29T08:49:03.541Z,3.15
2017-11-29T08:50:13.545Z,3.36
2017-11-29T08:51:23.283Z,3.37
2017-11-29T08:52:32.742Z,3.52
2017-11-29T08:53:42.456Z,3.68
2017-11-29T08:54:51.906Z,3.84
2017-11-29T08:56:01.620Z,3.89
2017-11-29T08:57:10.819Z,3.96
2017-11-29T08:58:20.778Z,3.96
2017-11-29T08:59:30.484Z,4.1
2017-11-29T09:00:39.923Z,4.02
2017-11-29T09:01:49.400Z,4.13
2017-11-29T09:02:59.139Z,4.22
2017-11-29T09:04:08.875Z,4.4
2017-11-29T09:05:18.091Z,4.6
2017-11-29T09:06:27.804Z,4.49
2017-11-29T09:07:37.269Z,4.43
2017-11-29T09:08:47.245Z,4.6
2017-11-29T09:09:57.208Z,4.7
2017-11-29T09:11:06.682Z,4.74
2017-11-29T09:12:16.401Z,4.7
2017-11-29T09:13:25.845Z,4.74
2017-11-29T09:14:35.826Z,4.71
2017-11-29T09:15:45.801Z,4.7
2017-11-29T09:16:55.809Z,4.7
2017-11-29T09:18:05.342Z,4.9
2017-11-29T09:19:15.049Z,4.87
2017-11-29T09:20:24.761Z,4.98
2017-11-29T09:21:34.486Z,5.02
2017-11-29T09:22:44.205Z,5.19
2017-11-29T09:23:54.211Z,5.36
2017-11-29T09:25:03.979Z,5.38
2017-11-29T09:26:14.212Z,5.43
2017-11-29T09:27:24.229Z,5.52
2017-11-29T09:28:33.952Z,5.56
2017-11-29T09:29:43.679Z,5.55
2017-11-29T09:30:53.406Z,5.56
2017-11-29T09:32:03.377Z,5.59
2017-11-29T09:33:12.604Z,5.67
2017-11-29T09:34:22.600Z,5.54
2017-11-29T09:35:32.341Z,5.56
2017-11-29T09:36:42.087Z,5.58
2017-11-29T09:37:51.808Z,5.79
2017-11-29T09:39:01.345Z,6.06
2017-11-29T09:40:10.533Z,6.12
2017-11-29T09:41:20.004Z,6.29
2017-11-29T09:42:29.739Z,6.16
2017-11-29T09:43:39.495Z,6.19
2017-11-29T09:44:48.960Z,6.32
2017-11-29T09:45:58.718Z,6.35
2017-11-29T09:47:08.447Z,6.49
2017-11-29T09:48:18.421Z,6.28
2017-11-29T09:49:28.484Z,6.38
2017-11-29T09:50:38.478Z,6.36
2017-11-29T09:51:48.449Z,6.7
2017-11-29T09:52:58.481Z,6.77
2017-11-29T09:54:08.718Z,7.01
2017-11-29T09:55:17.944Z,7.31
2017-11-29T09:56:27.953Z,7.18
2017-11-29T09:57:37.686Z,7.26
2017-11-29T09:58:47.480Z,7.07
2017-11-29T09:59:57.267Z,7.18
2017-11-29T10:01:07.276Z,7.4
2017-11-29T10:02:17.034Z,7.61
2017-11-29T10:03:27.041Z,7.72
2017-11-29T10:04:36.803Z,7.83
2017-11-29T10:05:46.542Z,8.06
2017-11-29T10:06:56.106Z,7.8
2017-11-29T10:08:06.158Z,7.88
2017-11-29T10:09:15.920Z,7.59
2017-11-29T10:10:25.645Z,7.7
2017-11-29T10:11:35.438Z,7.43
2017-11-29T10:12:45.223Z,7.41
2017-11-29T10:13:54.987Z,7.31
2017-11-29T10:15:04.447Z,7.15
2017-11-29T10:16:13.897Z,6.9
2017-11-29T10:17:23.369Z,6.85
2017-11-29T10:18:33.348Z,6.85
2017-11-29T10:19:43.080Z,6.9
2017-11-29T10:20:52.817Z,6.59
2017-11-29T10:22:02.800Z,6.57
2017-11-29T10:23:12.775Z,6.5
2017-11-29T10:24:22.751Z,6.38
2017-11-29T10:25:32.745Z,6.31
2017-11-29T10:26:42.752Z,6.52
2017-11-29T10:27:52.497Z,6.62
2017-11-29T10:29:02.221Z,6.87
2017-11-29T10:30:12.005Z,6.96
2017-11-29T10:31:21.475Z,7
2017-11-29T10:32:31.229Z,7.15
2017-11-29T10:33:40.872Z,7.51
2017-11-29T10:34:50.607Z,7.59
2017-11-29T10:36:00.113Z,7.72
2017-11-29T10:37:09.618Z,7.59
2017-11-29T10:38:19.089Z,7.64
2017-11-29T10:39:29.072Z,7.51
2017-11-29T10:40:38.799Z,7.39
2017-11-29T10:41:48.532Z,7.41
2017-11-29T10:42:58.253Z,7.4
2017-11-29T10:44:08.266Z,7.36
2017-11-29T10:45:17.985Z,7.43
2017-11-29T10:46:27.972Z,7.36
2017-11-29T10:47:37.709Z,7.33
2017-11-29T10:48:47.436Z,7.36
2017-11-29T10:49:56.888Z,7.53
2017-11-29T10:51:06.629Z,7.51
2017-11-29T10:52:16.611Z,7.88
2017-11-29T10:53:26.062Z,8.21
2017-11-29T10:54:36.087Z,8.6
2017-11-29T10:55:46.110Z,8.64
2017-11-29T10:56:55.848Z,8.64
2017-11-29T10:58:05.949Z,8.6
2017-11-29T10:59:15.962Z,8.57
2017-11-29T11:00:25.432Z,8.32
2017-11-29T11:01:35.174Z,8.32
2017-11-29T11:02:44.898Z,8.21
2017-11-29T11:03:54.889Z,8.44
2017-11-29T11:05:04.606Z,8.38
2017-11-29T11:06:14.320Z,8.52
2017-11-29T11:07:24.048Z,8.68
2017-11-29T11:08:33.776Z,8.49
2017-11-29T11:09:42.986Z,8.31
2017-11-29T11:10:52.723Z,8.2
2017-11-29T11:12:02.446Z,7.85
2017-11-29T11:13:11.649Z,7.85
2017-11-29T11:14:21.104Z,7.62
2017-11-29T11:15:30.820Z,7.66
2017-11-29T11:16:40.548Z,7.8
2017-11-29T11:17:50.537Z,7.72
2017-11-29T11:19:00.258Z,7.77
2017-11-29T11:20:09.941Z,8.05
2017-11-29T11:21:19.692Z,8.03
2017-11-29T11:22:29.167Z,7.95
2017-11-29T11:23:39.186Z,7.81
2017-11-29T11:24:48.941Z,7.61
2017-11-29T11:25:58.955Z,7.41
2017-11-29T11:27:08.965Z,7.62
2017-11-29T11:28:18.958Z,7.78
2017-11-29T11:29:28.687Z,7.88
2017-11-29T11:30:38.391Z,7.99
2017-11-29T11:31:48.120Z,7.99
2017-11-29T11:32:57.999Z,7.96
2017-11-29T11:34:07.723Z,7.81
2017-11-29T11:35:17.707Z,7.78
2017-11-29T11:36:27.758Z,7.59
2017-11-29T11:37:37.526Z,7.48
2017-11-29T11:38:47.500Z,7.53
2017-11-29T11:39:56.705Z,7.81
2017-11-29T11:41:06.705Z,7.85
2017-11-29T11:42:15.905Z,7.87
2017-11-29T11:43:25.355Z,7.98
2017-11-29T11:44:34.843Z,8.02
2017-11-29T11:45:44.578Z,8.06
2017-11-29T11:46:54.305Z,8.21
2017-11-29T11:48:04.073Z,8.42
2017-11-29T11:49:13.524Z,8.53
2017-11-29T11:50:22.994Z,8.64
2017-11-29T11:51:32.777Z,8.92
2017-11-29T11:52:42.498Z,8.71
2017-11-29T11:53:52.483Z,8.46
2017-11-29T11:55:02.472Z,8.39
2017-11-29T11:56:12.199Z,8.5
2017-11-29T11:57:21.157Z,8.64
2017-11-29T11:58:31.144Z,8.5
2017-11-29T11:59:41.141Z,8.63
2017-11-29T12:00:50.859Z,8.71
2017-11-29T12:02:00.887Z,8.78
2017-11-29T12:03:10.617Z,8.86
2017-11-29T12:04:20.078Z,8.74
2017-11-29T12:05:29.819Z,8.57
2017-11-29T12:06:39.544Z,8.35
2017-11-29T12:07:49.553Z,8.16
2017-11-29T12:08:59.291Z,8.11
2017-11-29T12:10:09.276Z,8.14
2017-11-29T12:11:19.271Z,7.99
2017-11-29T12:12:28.999Z,7.8
2017-11-29T12:13:38.986Z,7.84
2017-11-29T12:14:48.492Z,7.74
2017-11-29T12:15:58.466Z,7.8
2017-11-29T12:17:08.446Z,7.85
2017-11-29T12:18:18.437Z,7.99
2017-11-29T12:19:28.432Z,8.11
2017-11-29T12:20:38.413Z,8.17
2017-11-29T12:21:47.866Z,8.38
2017-11-29T12:22:57.856Z,8.66
2017-11-29T12:24:07.309Z,8.66
2017-11-29T12:25:17.301Z,8.68
2017-11-29T12:26:27.049Z,8.93
2017-11-29T12:27:36.512Z,8.95
2017-11-29T12:28:46.502Z,8.89
2017-11-29T12:29:56.241Z,9.08
2017-11-29T12:31:06.234Z,8.97
2017-11-29T12:32:16.251Z,8.87
2017-11-29T12:33:26.268Z,8.79
2017-11-29T12:34:36.283Z,8.64
2017-11-29T12:35:45.747Z,8.45
2017-11-29T12:36:55.202Z,8.45
2017-11-29T12:38:05.193Z,8.54
2017-11-29T12:39:15.201Z,8.64
2017-11-29T12:40:25.203Z,8.66
2017-11-29T12:41:34.668Z,8.68
2017-11-29T12:42:44.388Z,8.66
2017-11-29T12:43:53.863Z,8.74
2017-11-29T12:45:03.586Z,8.59
2017-11-29T12:46:13.317Z,8.6
2017-11-29T12:47:23.087Z,8.69
2017-11-29T12:48:33.073Z,8.99
2017-11-29T12:49:43.044Z,9.12
2017-11-29T12:50:53.013Z,9.09
2017-11-29T12:52:02.750Z,8.89
2017-11-29T12:53:12.736Z,8.92
2017-11-29T12:54:22.205Z,8.79
2017-11-29T12:55:31.925Z,8.77
2017-11-29T12:56:41.901Z,8.61
2017-11-29T12:57:51.884Z,8.61
2017-11-29T12:59:01.857Z,8.64
2017-11-29T13:00:11.593Z,8.34
2017-11-29T13:01:21.599Z,8.44
2017-11-29T13:02:31.318Z,8.61
2017-11-29T13:03:40.772Z,8.75
2017-11-29T13:04:50.772Z,8.63
2017-11-29T13:06:00.237Z,8.68
2017-11-29T13:07:09.710Z,8.57
2017-11-29T13:08:19.708Z,8.35
2017-11-29T13:09:29.418Z,8.32
2017-11-29T13:10:39.393Z,8.46
2017-11-29T13:11:48.858Z,8.52
2017-11-29T13:12:58.076Z,8.38
2017-11-29T13:14:07.533Z,8.64
2017-11-29T13:15:17.514Z,8.72
2017-11-29T13:16:27.047Z,8.84
2017-11-29T13:17:36.778Z,8.82
2017-11-29T13:18:46.501Z,8.86
2017-11-29T13:19:56.227Z,8.75
2017-11-29T13:21:05.941Z,8.68
2017-11-29T13:22:15.985Z,8.78
2017-11-29T13:23:25.450Z,8.89
2017-11-29T13:24:35.181Z,8.95
2017-11-29T13:25:44.095Z,9.03
2017-11-29T13:26:54.077Z,8.95
2017-11-29T13:28:04.078Z,9.05
2017-11-29T13:29:13.844Z,9.02
2017-11-29T13:30:23.593Z,8.77
2017-11-29T13:31:33.321Z,8.68
2017-11-29T13:32:43.061Z,8.49
2017-11-29T13:33:53.057Z,8.34
2017-11-29T13:35:03.052Z,8.18
2017-11-29T13:36:13.054Z,8.21
2017-11-29T13:37:22.244Z,8.06
2017-11-29T13:38:31.962Z,7.84
2017-11-29T13:39:41.678Z,7.88
2017-11-29T13:40:50.898Z,7.8
2017-11-29T13:42:00.886Z,7.66
2017-11-29T13:43:10.338Z,7.64
2017-11-29T13:44:20.067Z,7.7
2017-11-29T13:45:29.798Z,7.67
2017-11-29T13:46:39.524Z,7.47
2017-11-29T13:47:49.533Z,7.26
2017-11-29T13:48:59.560Z,7.28
2017-11-29T13:50:09.618Z,7.21
2017-11-29T13:51:19.643Z,7.23
2017-11-29T13:52:29.367Z,7.13
2017-11-29T13:53:39.089Z,7.05
2017-11-29T13:54:49.077Z,6.97
2017-11-29T13:55:58.796Z,6.87
2017-11-29T13:57:08.258Z,6.87
2017-11-29T13:58:18.253Z,6.83
2017-11-29T13:59:28.250Z,6.74
2017-11-29T14:00:37.979Z,6.7
2017-11-29T14:01:47.684Z,6.74
2017-11-29T14:02:57.430Z,6.71
2017-11-29T14:04:07.428Z,6.72
2017-11-29T14:05:17.438Z,6.72
2017-11-29T14:06:26.908Z,6.8
2017-11-29T14:07:36.890Z,6.57
2017-11-29T14:08:46.869Z,6.56
2017-11-29T14:09:56.573Z,6.39
2017-11-29T14:11:06.300Z,6.32
2017-11-29T14:12:16.029Z,6.19
2017-11-29T14:13:25.747Z,6.19
2017-11-29T14:14:35.470Z,6.09
2017-11-29T14:15:45.210Z,6.01
2017-11-29T14:16:54.951Z,5.97
2017-11-29T14:18:04.927Z,5.88
2017-11-29T14:19:14.672Z,5.77
2017-11-29T14:20:24.386Z,5.8
2017-11-29T14:21:34.379Z,5.67
2017-11-29T14:22:43.828Z,5.64
2017-11-29T14:23:53.822Z,5.49
2017-11-29T14:25:03.285Z,5.33
2017-11-29T14:26:13.350Z,5.36
2017-11-29T14:27:23.330Z,5.26
2017-11-29T14:28:32.816Z,5.28
2017-11-29T14:29:42.320Z,5.2
2017-11-29T14:30:52.297Z,5.1
2017-11-29T14:32:02.020Z,5.07
2017-11-29T14:33:11.999Z,5.08
2017-11-29T14:34:21.754Z,4.98
2017-11-29T14:35:31.205Z,4.98
2017-11-29T14:36:40.923Z,4.9
2017-11-29T14:37:50.696Z,4.86
2017-11-29T14:39:00.407Z,4.86
2017-11-29T14:40:10.393Z,4.89
2017-11-29T14:41:19.847Z,4.67
2017-11-29T14:42:29.568Z,4.74
2017-11-29T14:43:39.580Z,4.74
2017-11-29T14:44:49.058Z,4.71
2017-11-29T14:45:58.504Z,4.67
2017-11-29T14:47:08.205Z,4.66
2017-11-29T14:48:17.939Z,4.7
2017-11-29T14:49:27.919Z,4.6
2017-11-29T14:50:37.634Z,4.64
2017-11-29T14:51:47.618Z,4.63
2017-11-29T14:52:57.353Z,4.56
2017-11-29T14:54:07.091Z,4.52
2017-11-29T14:55:17.068Z,4.6
2017-11-29T14:56:26.619Z,4.57
2017-11-29T14:57:36.328Z,4.52
2017-11-29T14:58:46.046Z,4.56
2017-11-29T14:59:56.014Z,4.48
2017-11-29T15:01:05.484Z,4.46
2017-11-29T15:02:14.926Z,4.4
2017-11-29T15:03:24.924Z,4.42
2017-11-29T15:04:34.661Z,4.36
2017-11-29T15:05:44.399Z,4.4
2017-11-29T15:06:54.365Z,4.43
2017-11-29T15:08:03.809Z,4.39
2017-11-29T15:09:13.015Z,4.32
2017-11-29T15:10:22.477Z,4.36
2017-11-29T15:11:32.192Z,4.38
2017-11-29T15:12:42.180Z,4.31
2017-11-29T15:13:52.155Z,4.39
2017-11-29T15:15:01.865Z,4.38
2017-11-29T15:16:11.578Z,4.28
2017-11-29T15:17:21.562Z,4.32
2017-11-29T15:18:31.043Z,4.24
2017-11-29T15:19:41.043Z,4.25
2017-11-29T15:20:51.252Z,4.25
2017-11-29T15:22:00.707Z,4.16
2017-11-29T15:23:10.435Z,4.14
2017-11-29T15:24:20.159Z,4.02
2017-11-29T15:25:29.871Z,4.1
2017-11-29T15:26:39.605Z,4.07
2017-11-29T15:27:49.586Z,4.03
2017-11-29T15:28:59.565Z,3.99
2017-11-29T15:30:09.291Z,3.99
2017-11-29T15:31:18.746Z,3.99
2017-11-29T15:32:28.450Z,3.96
2017-11-29T15:33:38.180Z,3.95